Dades meteomassalio
Diari Summary for Nil La, TWC- Units:  Metric    English   Both
« Previous Day
Next Day »
Diari Semanal Mensual Anual Personalitzat
  Maxima: Minima: Mijana:
Temperatura: -17.8 °C -15.6 °C -14 °C
Rosada: -17.8 °C -16.9 °C -15.3 °C
Humitat: Humidity % 79 % 85 %
Velocitat del vent: 0 km/h 0 km/h 28.8 km/h
Racha vent: 0 km/h - -
Vent:- - WNW
Pressio: 0 hPa 34327.3 hPa -
Pluja: 83.82 mm    
Historical Graphs
 
 
Tabular Data for Nil La, TWC-
Time Temperature Dew Point Pressure Wind Wind Speed Wind Gust Humidity Rainfall Rate (Hourly) solar Conditions
-17.8 °C -17.8 °C 0 hPa Calm     Humidity % 0 mm SolarRadiationWatts/m^2 W/m2 Conditions
09:54 -15.6 °C -16.3 °C 34327.3 hPa NW 23.3 km/h 14 km/h 92 % 12.7 mm 14.00 W/m2 BKN
09:59 -15.6 °C -16.3 °C 34327.3 hPa NW 26.9 km/h 20.3 km/h 92 % 12.7 mm 14.00 W/m2 BKN
10:04 -15.6 °C -16.2 °C 34327.3 hPa WNW 17.9 km/h 16.1 km/h 93 % 12.7 mm 18.00 W/m2 BKN
10:09 -15.6 °C -16.2 °C 34330.7 hPa NW 26.9 km/h 20.8 km/h 93 % 12.7 mm 25.00 W/m2 BKN
10:14 -15.6 °C -16.2 °C 34330.7 hPa NW 29.8 km/h 18.7 km/h 93 % 7.62 mm 23.00 W/m2 BKN
10:19 -15.6 °C -16.3 °C 34337.4 hPa NW 29.8 km/h 15.8 km/h 92 % 7.62 mm 21.00 W/m2 BKN
10:24 -15.6 °C -16.3 °C 34334 hPa NW 29.8 km/h 20.4 km/h 92 % 7.62 mm 30.00 W/m2 BKN
10:29 -15.6 °C -16.2 °C 34337.4 hPa NW 26.9 km/h 16.3 km/h 93 % 7.62 mm 51.00 W/m2 BKN
10:34 -15.3 °C -15.9 °C 34340.8 hPa NNW 31.1 km/h 25.4 km/h 93 % 12.7 mm 39.00 W/m2 RA
10:39 -15.3 °C -15.9 °C 34344.2 hPa NW 26.9 km/h 18.7 km/h 93 % 12.7 mm 33.00 W/m2 BKN
10:44 -15.3 °C -15.9 °C 34344.2 hPa NW 17.9 km/h 5 km/h 92 % 7.62 mm 51.00 W/m2 BKN
10:49 -15.3 °C -15.9 °C 34344.2 hPa NW 33.6 km/h 23.5 km/h 92 % 7.62 mm 49.00 W/m2 SCT
10:54 -15.3 °C -15.9 °C 34351 hPa NW 31.1 km/h 15.8 km/h 93 % 7.62 mm 46.00 W/m2 SCT
10:59 -15.3 °C -15.9 °C 34351 hPa NW 29.8 km/h 14.5 km/h 93 % 7.62 mm 76.00 W/m2 SCT
11:04 -15.3 °C -15.9 °C 34354.4 hPa NW 23.8 km/h 15.6 km/h 93 % 7.62 mm 69.00 W/m2 SCT
11:09 -15 °C -15.7 °C 34357.7 hPa NW 20.9 km/h 15.3 km/h 92 % 7.62 mm 60.00 W/m2 SCT
11:14 -15 °C -15.7 °C 34357.7 hPa NW 35.7 km/h 19.5 km/h 92 % 7.62 mm 70.00 W/m2 SCT
11:19 -15 °C -15.7 °C 34361.1 hPa NW 17.9 km/h 15 km/h 92 % 7.62 mm 76.00 W/m2 SCT
11:24 -15 °C -15.7 °C 34361.1 hPa WNW 26.9 km/h 14.8 km/h 92 % 7.62 mm 70.00 W/m2 FEW
11:29 -15 °C -15.7 °C 34361.1 hPa WNW 15 km/h 14.5 km/h 92 % 7.62 mm 79.00 W/m2 FEW
11:34 -15 °C -15.7 °C 34357.7 hPa WNW 35.7 km/h 17.5 km/h 92 % 0 mm 70.00 W/m2 FEW
11:39 -15 °C -15.7 °C 34361.1 hPa NW 20.9 km/h 15.8 km/h 92 % 0 mm 160.00 W/m2 FEW
11:44 -14.7 °C -15.4 °C 34361.1 hPa WNW 23.8 km/h 11.9 km/h 92 % 0 mm 162.00 W/m2 CLR
11:49 -14.7 °C -15.4 °C 34361.1 hPa WNW 26.9 km/h 13.5 km/h 92 % 0 mm 165.00 W/m2 CLR
11:54 -14.7 °C -15.4 °C 34361.1 hPa NNW 26.9 km/h 21.6 km/h 92 % 0 mm 156.00 W/m2 CLR
11:59 -14.4 °C -15.1 °C 34361.1 hPa NW 32.8 km/h 19.5 km/h 92 % 0 mm 105.00 W/m2 CLR
12:04 -14.4 °C -15.1 °C 34364.5 hPa NW 32.8 km/h 12.9 km/h 92 % 0 mm 83.00 W/m2 CLR
12:09 -14.4 °C -15.1 °C 34361.1 hPa North 25.9 km/h 13.5 km/h 91 % 0 mm 86.00 W/m2 CLR
12:14 -14.4 °C -15.1 °C 34361.1 hPa NW 10.3 km/h 10.1 km/h 91 % 0 mm 79.00 W/m2 FEW
12:19 -14.4 °C -15.1 °C 34354.4 hPa WNW 11.9 km/h 10.9 km/h 91 % 0 mm 97.00 W/m2 CLR
12:24 -14.4 °C -15.1 °C 34351 hPa NNW 29.8 km/h 16.1 km/h 91 % 0 mm 83.00 W/m2 CLR
12:29 -14.4 °C -15.1 °C 34351 hPa Calm     91 % 0 mm 84.00 W/m2 FEW
12:34 -14.4 °C -15.1 °C 34347.6 hPa NW 20.9 km/h 20 km/h 91 % 0 mm 98.00 W/m2 FEW
12:39 -14.4 °C -15.1 °C 34347.6 hPa North 18.2 km/h 14.8 km/h 91 % 0 mm 72.00 W/m2 CLR
12:44 -14.4 °C -15.1 °C 34344.2 hPa NNW 26.9 km/h 17.9 km/h 91 % 0 mm 67.00 W/m2 CLR
12:49 -14.1 °C -14.8 °C 34340.8 hPa NNW 17.9 km/h 12.9 km/h 91 % 0 mm 104.00 W/m2 FEW
12:54 -14.1 °C -14.8 °C 34344.2 hPa North 29.8 km/h 25.1 km/h 91 % 0 mm 79.00 W/m2 CLR
12:59 -14.1 °C -14.9 °C 34344.2 hPa NW 35.7 km/h 28.5 km/h 90 % 0 mm 118.00 W/m2 CLR
13:04 -14.1 °C -14.9 °C 34344.2 hPa North 56.6 km/h 43.3 km/h 90 % 0 mm 165.00 W/m2 CLR
13:09 -14.1 °C -15 °C 34344.2 hPa North 41.7 km/h 35.7 km/h 89 % 0 mm 204.00 W/m2 CLR
13:14 -14.1 °C -15 °C 34344.2 hPa North 35.7 km/h 17.5 km/h 89 % 0 mm 183.00 W/m2 CLR
13:19 -13.8 °C -14.7 °C 34344.2 hPa North 29.8 km/h 18.8 km/h 89 % 0 mm 120.00 W/m2 CLR
13:24 -13.8 °C -14.7 °C 34340.8 hPa North 41.7 km/h 26.9 km/h 89 % 0 mm 151.00 W/m2 CLR
13:29 -13.8 °C -14.7 °C 34340.8 hPa NNE 26.9 km/h 11.1 km/h 89 % 0 mm 130.00 W/m2 CLR
13:34 -13.8 °C -14.7 °C 34344.2 hPa NNE 26.9 km/h 20.4 km/h 89 % 0 mm 220.00 W/m2 CLR
13:39 -13.8 °C -14.7 °C 34347.6 hPa NNE 23.8 km/h 9.8 km/h 89 % 0 mm 172.00 W/m2 CLR
13:44 -13.8 °C -14.7 °C 34344.2 hPa North 29.8 km/h 17.1 km/h 89 % 0 mm 137.00 W/m2 CLR
13:49 -13.8 °C -14.7 °C 34347.6 hPa NNW 20.9 km/h 17.1 km/h 89 % 0 mm 84.00 W/m2 CLR
13:54 -13.8 °C -14.7 °C 34344.2 hPa NNW 28.5 km/h 25.6 km/h 89 % 0 mm 142.00 W/m2 CLR
13:59 -13.8 °C -14.8 °C 34344.2 hPa North 32.8 km/h 22.9 km/h 88 % 0 mm 171.00 W/m2 CLR
14:04 -13.8 °C -14.8 °C 34344.2 hPa North 32.8 km/h 28.2 km/h 88 % 0 mm 199.00 W/m2 CLR
14:09 -13.4 °C -14.5 °C 34344.2 hPa NNW 29.8 km/h 17.4 km/h 88 % 0 mm 174.00 W/m2 CLR
14:14 -13.4 °C -14.6 °C 34340.8 hPa NNE 23.8 km/h 21.7 km/h 87 % 0 mm 165.00 W/m2 CLR
14:19 -13.2 °C -14.3 °C 34340.8 hPa NNW 29.8 km/h 19.6 km/h 87 % 0 mm 260.00 W/m2 CLR
14:24 -13.2 °C -14.3 °C 34340.8 hPa North 17.9 km/h 8.5 km/h 87 % 0 mm 160.00 W/m2 CLR
14:29 -13.2 °C -14.4 °C 34340.8 hPa North 17.9 km/h 5.1 km/h 86 % 0 mm 137.00 W/m2 CLR
14:34 -13.2 °C -14.4 °C 34337.4 hPa North 32.8 km/h 27.2 km/h 86 % 0 mm 139.00 W/m2 CLR
14:39 -13.2 °C -14.4 °C 34337.4 hPa North 31.1 km/h 18.7 km/h 86 % 0 mm 146.00 W/m2 CLR
14:44 -13.2 °C -14.4 °C 34337.4 hPa North 29.8 km/h 17.9 km/h 86 % 0 mm 144.00 W/m2 CLR
14:49 -13.2 °C -14.5 °C 34340.8 hPa North 32.8 km/h 20.4 km/h 85 % 0 mm 127.00 W/m2 CLR
14:54 -13.2 °C -14.4 °C 34340.8 hPa NNE 32.8 km/h 24.6 km/h 86 % 0 mm 137.00 W/m2 CLR
14:59 -13.2 °C -14.4 °C 34340.8 hPa North 20.9 km/h 15.6 km/h 86 % 0 mm 181.00 W/m2 CLR
15:04 -12.8 °C -14.1 °C 34337.4 hPa NNE 11.9 km/h   86 % 0 mm 90.00 W/m2 CLR
15:09 -13.2 °C -14.4 °C 34340.8 hPa North 15 km/h 10.1 km/h 86 % 0 mm 142.00 W/m2 CLR
15:14 -12.8 °C -14.1 °C 34340.8 hPa NNW 3.1 km/h   86 % 0 mm 125.00 W/m2 CLR
15:19 -12.8 °C -14.1 °C 34337.4 hPa Calm     86 % 0 mm 113.00 W/m2 CLR
15:24 -12.8 °C -14.1 °C 34337.4 hPa Calm     86 % 0 mm 118.00 W/m2 CLR
15:29 -12.8 °C -14.1 °C 34337.4 hPa Calm     86 % 0 mm 123.00 W/m2 CLR
15:34 -12.8 °C -14.2 °C 34337.4 hPa NNW 26.9 km/h 6.4 km/h 85 % 0 mm 91.00 W/m2 CLR
15:39 -12.8 °C -14.2 °C 34337.4 hPa NNW 15 km/h 9.7 km/h 85 % 0 mm 91.00 W/m2 CLR
15:44 -12.8 °C -14.3 °C 34337.4 hPa NNW 23.8 km/h 1 km/h 84 % 0 mm 93.00 W/m2 CLR
15:49 -12.8 °C -14.3 °C 34337.4 hPa NNW 29.8 km/h 20.4 km/h 83 % 0 mm 98.00 W/m2 CLR
15:54 -12.6 °C -14.1 °C 34337.4 hPa NW 23.8 km/h 14.2 km/h 83 % 0 mm 77.00 W/m2 CLR
15:59 -12.6 °C -14.2 °C 34337.4 hPa NW 18.2 km/h 12.9 km/h 82 % 0 mm 86.00 W/m2 FEW
16:03 -12.6 °C -14.2 °C 34337.4 hPa NNW 15 km/h 10.3 km/h 82 % 0 mm 97.00 W/m2 FEW
16:09 -12.6 °C -14.2 °C 34337.4 hPa NNW 26.9 km/h 15.6 km/h 82 % 0 mm 102.00 W/m2 CLR
16:14 -12.6 °C -14.3 °C 34340.8 hPa NW 29.8 km/h 19.5 km/h 81 % 0 mm 121.00 W/m2 CLR
16:19 -12.6 °C -14.3 °C 34340.8 hPa NNW 31.1 km/h 26.7 km/h 81 % 0 mm 97.00 W/m2 CLR
16:24 -12.6 °C -14.3 °C 34347.6 hPa NW 29.8 km/h 22 km/h 81 % 0 mm 81.00 W/m2 CLR
16:29 -12.6 °C -14.3 °C 34347.6 hPa NW 29.8 km/h 17.9 km/h 80 % 0 mm 62.00 W/m2 FEW
16:34 -12.6 °C -14.3 °C 34347.6 hPa WNW 26.9 km/h 20.9 km/h 80 % 0 mm 60.00 W/m2 FEW
16:39 -12.6 °C -14.4 °C 34344.2 hPa NW 29.8 km/h 27.7 km/h 79 % 0 mm 60.00 W/m2 SCT
16:44 -12.6 °C -14.4 °C 34344.2 hPa NNW 44.1 km/h 34.1 km/h 79 % 0 mm 63.00 W/m2 SCT
16:49 -12.6 °C -14.4 °C 34344.2 hPa NW 35.7 km/h 30.7 km/h 79 % 0 mm 53.00 W/m2 SCT
16:54 -12.8 °C -14.8 °C 34347.6 hPa NW 32.8 km/h 27.2 km/h 79 % 0 mm 44.00 W/m2 SCT
16:59 -12.8 °C -14.7 °C 34351 hPa NW 41.7 km/h 27.7 km/h 80 % 0 mm 42.00 W/m2 SCT
17:04 -12.8 °C -14.7 °C 34354.4 hPa NW 29.8 km/h 24.3 km/h 80 % 0 mm 47.00 W/m2 SCT
17:09 -12.8 °C -14.7 °C 34354.4 hPa NW 50.7 km/h 42.6 km/h 80 % 0 mm 44.00 W/m2 SCT
17:14 -12.8 °C -14.7 °C 34354.4 hPa NW 47.6 km/h 31.1 km/h 80 % 0 mm 33.00 W/m2 BKN
17:19 -12.8 °C -14.7 °C 34357.7 hPa NNW 35.7 km/h 33.5 km/h 80 % 0 mm 21.00 W/m2 BKN
17:24 -12.8 °C -14.7 °C 34357.7 hPa NNW 29.8 km/h 22 km/h 80 % 0 mm 18.00 W/m2 BKN
17:29 -12.8 °C -14.7 °C 34361.1 hPa NW 38.8 km/h 28.5 km/h 80 % 0 mm 19.00 W/m2 BKN
17:34 -12.8 °C -14.7 °C 34364.5 hPa NW 36.2 km/h 25.6 km/h 80 % 0 mm 19.00 W/m2 BKN
17:39 -12.8 °C -14.7 °C 34361.1 hPa NW 35.7 km/h 24.1 km/h 80 % 0 mm 16.00 W/m2 BKN
17:44 -12.8 °C -14.7 °C 34364.5 hPa NW 44.7 km/h 36.5 km/h 80 % 0 mm 11.00 W/m2 BKN
17:49 -12.8 °C -14.7 °C 34367.9 hPa NW 44.7 km/h 27.7 km/h 80 % 0 mm 7.00 W/m2 BKN
17:54 -13.2 °C -14.9 °C 34367.9 hPa NW 41.7 km/h 29.3 km/h 80 % 0 mm 5.00 W/m2 OVC
17:59 -13.2 °C -14.9 °C 34367.9 hPa NW 35.7 km/h 29.5 km/h 80 % 0 mm 0.00 W/m2 OVC
18:04 -13.2 °C -14.9 °C 34371.3 hPa NW 26.9 km/h 21.7 km/h 80 % 0 mm 0.00 W/m2 OVC
18:09 -13.2 °C -14.9 °C 34367.9 hPa NW 29.8 km/h 20.8 km/h 80 % 0 mm 0.00 W/m2 OVC
18:14 -13.2 °C -14.9 °C 34367.9 hPa WNW 29.8 km/h 29.5 km/h 80 % 0 mm 0.00 W/m2 CLR
18:19 -13.4 °C -15.2 °C 34367.9 hPa NW 32.8 km/h 25.9 km/h 80 % 0 mm 0.00 W/m2 CLR
18:24 -13.4 °C -15.2 °C 34371.3 hPa NW 29.8 km/h 25.1 km/h 80 % 0 mm 0.00 W/m2 CLR
18:29 -13.4 °C -15.2 °C 34371.3 hPa NNW 47.6 km/h 37.8 km/h 80 % 0 mm 0.00 W/m2 CLR
18:34 -13.4 °C -15.2 °C 34374.7 hPa NW 56.6 km/h 44.1 km/h 81 % 0 mm 0.00 W/m2 CLR
18:39 -13.4 °C -15.2 °C 34371.3 hPa NNW 62.6 km/h 44.3 km/h 81 % 0 mm 0.00 W/m2 CLR
18:44 -13.4 °C -15.2 °C 34378.1 hPa NNW 62.6 km/h 38.3 km/h 81 % 0 mm 0.00 W/m2 CLR
18:49 -13.4 °C -15.2 °C 34381.4 hPa NNW 50.7 km/h 41.2 km/h 81 % 0 mm 0.00 W/m2 CLR
18:54 -13.4 °C -15.2 °C 34384.8 hPa NNW 50.7 km/h 30.3 km/h 81 % 0 mm 0.00 W/m2 CLR
18:59 -13.8 °C -15.4 °C 34388.2 hPa NNW 59.5 km/h 43.3 km/h 81 % 0 mm 0.00 W/m2 CLR
19:04 -13.8 °C -15.4 °C 34391.6 hPa NW 56.6 km/h 35.2 km/h 81 % 0 mm 0.00 W/m2 CLR
19:09 -13.8 °C -15.4 °C 34391.6 hPa NW 47.6 km/h 31.4 km/h 81 % 0 mm 0.00 W/m2 CLR
19:14 -13.8 °C -15.4 °C 34395 hPa NNW 53.6 km/h 41.4 km/h 82 % 0 mm 0.00 W/m2 CLR
19:19 -13.8 °C -15.4 °C 34398.4 hPa NW 44.1 km/h 29.3 km/h 81 % 0 mm 0.00 W/m2 CLR
19:24 -13.8 °C -15.4 °C 34398.4 hPa NW 50.7 km/h 43.3 km/h 82 % 0 mm 0.00 W/m2 CLR
19:29 -13.8 °C -15.4 °C 34405.1 hPa NW 56.6 km/h 30.3 km/h 82 % 0 mm 0.00 W/m2 CLR
19:34 -14.1 °C -15.7 °C 34408.5 hPa NW 50.7 km/h 25.6 km/h 82 % 0 mm 0.00 W/m2 CLR
19:39 -14.1 °C -15.8 °C 34408.5 hPa NW 32.8 km/h 23 km/h 81 % 0 mm 0.00 W/m2 CLR
19:44 -14.1 °C -15.8 °C 34408.5 hPa WNW 29.8 km/h 26.9 km/h 81 % 0 mm 0.00 W/m2 CLR
19:49 -14.1 °C -15.8 °C 34411.9 hPa NW 26.9 km/h 21.2 km/h 81 % 0 mm 0.00 W/m2 CLR
19:54 -14.1 °C -15.8 °C 34415.3 hPa West 36.2 km/h 24.3 km/h 81 % 0 mm 0.00 W/m2 CLR
19:59 -14.1 °C -15.8 °C 34415.3 hPa NW 26.9 km/h 25.1 km/h 81 % 0 mm 0.00 W/m2 CLR
20:04 -14.1 °C -15.8 °C 34418.7 hPa NW 41.7 km/h 30.1 km/h 81 % 0 mm 0.00 W/m2 CLR
20:09 -14.1 °C -15.8 °C 34422.1 hPa NW 29.8 km/h 17.5 km/h 81 % 0 mm 0.00 W/m2 CLR
20:14 -14.4 °C -16.1 °C 34422.1 hPa NW 29.8 km/h 25.9 km/h 81 % 0 mm 0.00 W/m2 CLR
20:19 -14.4 °C -16.1 °C 34422.1 hPa NW 41.7 km/h 29.3 km/h 81 % 0 mm 0.00 W/m2 CLR
20:24 -14.4 °C -16.1 °C 34425.5 hPa WNW 23.8 km/h 21.2 km/h 81 % 0 mm 0.00 W/m2 CLR
20:29 -14.4 °C -16.1 °C 34425.5 hPa WNW 41.7 km/h 18.8 km/h 81 % 0 mm 0.00 W/m2 CLR
20:34 -14.4 °C -16.1 °C 34425.5 hPa WNW 47.6 km/h 25.1 km/h 81 % 0 mm 0.00 W/m2 CLR
20:39 -14.4 °C -16.1 °C 34428.8 hPa WNW 29.8 km/h 22.2 km/h 81 % 0 mm 0.00 W/m2 CLR
20:44 -14.4 °C -16.1 °C 34428.8 hPa WNW 15.6 km/h 6.3 km/h 81 % 0 mm 0.00 W/m2 CLR
20:49 -14.4 °C -16.1 °C 34432.2 hPa NW 29.8 km/h 16.9 km/h 81 % 0 mm 0.00 W/m2 CLR
20:54 -14.4 °C -15.9 °C 34439 hPa NW 26.9 km/h 13.7 km/h 82 % 0 mm 0.00 W/m2 CLR
20:59 -14.4 °C -15.9 °C 34439 hPa NW 23.8 km/h 16.6 km/h 82 % 0 mm 0.00 W/m2 CLR
21:04 -14.7 °C -16.3 °C 34442.4 hPa WNW 20.9 km/h 7.7 km/h 82 % 0 mm 0.00 W/m2 CLR
21:09 -14.7 °C -16.3 °C 34442.4 hPa South 15 km/h   82 % 0 mm 0.00 W/m2 CLR
21:14 -14.7 °C -16.3 °C 34445.8 hPa WSW 15 km/h 1.3 km/h 82 % 0 mm 0.00 W/m2 CLR
21:19 -14.7 °C -16.3 °C 34449.2 hPa NW 18.2 km/h 12.7 km/h 82 % 0 mm 0.00 W/m2 CLR
21:24 -14.7 °C -16.3 °C 34449.2 hPa West 11.9 km/h 11.1 km/h 82 % 0 mm 0.00 W/m2 CLR
21:29 -14.7 °C -16.3 °C 34452.6 hPa West 20.9 km/h 10.3 km/h 82 % 0 mm 0.00 W/m2 CLR
21:34 -14.7 °C -16.3 °C 34452.6 hPa NW 25.9 km/h 13.7 km/h 82 % 0 mm 0.00 W/m2 CLR
21:39 -15 °C -16.6 °C 34452.6 hPa WNW 15.6 km/h 13.2 km/h 82 % 0 mm 0.00 W/m2 CLR
21:44 -15.3 °C -16.9 °C 34452.6 hPa NW 29.8 km/h 20.3 km/h 82 % 0 mm 0.00 W/m2 CLR
21:49 -15.3 °C -16.9 °C 34449.2 hPa NW 32.8 km/h 25.6 km/h 82 % 0 mm 0.00 W/m2 CLR
21:54 -15 °C -16.6 °C 34452.6 hPa WNW 26.9 km/h 20.3 km/h 82 % 0 mm 0.00 W/m2 CLR
21:57 -15 °C -16.6 °C 34455.9 hPa WNW 23.8 km/h 20.8 km/h 82 % 0 mm 0.00 W/m2 CLR
22:04 -14.7 °C -16.3 °C 34455.9 hPa NW 20.9 km/h 15 km/h 82 % 0 mm 0.00 W/m2 CLR
22:09 -14.7 °C -16.2 °C 34455.9 hPa West 17.9 km/h 11.4 km/h 83 % 0 mm 0.00 W/m2 CLR
22:14 -14.7 °C -16.2 °C 34459.3 hPa WSW 26.9 km/h 20.3 km/h 83 % 0 mm 0.00 W/m2 CLR
22:19 -14.7 °C -16.2 °C 34459.3 hPa West 17.9 km/h 12.7 km/h 83 % 0 mm 0.00 W/m2 CLR
22:24 -14.7 °C -16.3 °C 34462.7 hPa SW 11.9 km/h 0.5 km/h 82 % 0 mm 0.00 W/m2 CLR
22:29 -14.7 °C -16.2 °C 34466.1 hPa Calm     83 % 0 mm 0.00 W/m2 CLR
22:34 -14.7 °C -16.2 °C 34466.1 hPa WSW 12.9 km/h 8.2 km/h 83 % 0 mm 0.00 W/m2 CLR
22:39 -14.7 °C -16.2 °C 34469.5 hPa West 10.3 km/h 2.6 km/h 83 % 0 mm 0.00 W/m2 CLR
22:44 -14.7 °C -16.1 °C 34472.9 hPa WSW 15 km/h 3.1 km/h 84 % 0 mm 0.00 W/m2 CLR
22:49 -15 °C -16.4 °C 34476.3 hPa WNW 23.8 km/h 5 km/h 84 % 0 mm 0.00 W/m2 CLR
22:54 -15 °C -16.4 °C 34472.9 hPa NNW 18.2 km/h 2.9 km/h 84 % 0 mm 0.00 W/m2 CLR
Lo Temps de Massalio
Compliments of Weather Underground - 768 kb